createdAt,value
2022-08-03T00:00:25.840Z,54.10
2022-08-03T00:02:52.655Z,54.20
2022-08-03T00:05:19.509Z,54.20
2022-08-03T00:07:46.160Z,54.20
2022-08-03T00:10:15.300Z,54.20
2022-08-03T00:12:42.036Z,54.20
2022-08-03T00:15:15.260Z,54.20
2022-08-03T00:17:52.978Z,54.10
2022-08-03T00:20:24.103Z,54.10
2022-08-03T00:22:51.438Z,54.20
2022-08-03T00:25:19.141Z,54.10
2022-08-03T00:27:45.834Z,54.20
2022-08-03T00:30:15.234Z,54.20
2022-08-03T00:32:45.089Z,54.10
2022-08-03T00:35:28.702Z,54.10
2022-08-03T00:37:59.512Z,54.10
2022-08-03T00:40:26.453Z,54.10
2022-08-03T00:42:58.131Z,54.00
2022-08-03T00:45:33.145Z,54.10
2022-08-03T00:48:00.861Z,54.00
2022-08-03T00:50:29.759Z,54.00
2022-08-03T00:52:58.746Z,54.10
2022-08-03T00:55:25.928Z,54.00
2022-08-03T00:57:53.127Z,54.00
2022-08-03T01:00:25.364Z,54.10
2022-08-03T01:02:52.591Z,54.00
2022-08-03T01:05:20.816Z,54.10
2022-08-03T01:08:12.117Z,54.10
2022-08-03T01:10:44.818Z,54.10
2022-08-03T01:14:03.769Z,54.10
2022-08-03T01:16:36.532Z,54.20
2022-08-03T01:19:32.658Z,54.20
2022-08-03T01:22:06.007Z,54.20
2022-08-03T01:24:44.796Z,54.10
2022-08-03T01:27:31.616Z,54.10
2022-08-03T01:30:07.968Z,54.20
2022-08-03T01:32:58.489Z,54.10
2022-08-03T01:35:38.615Z,54.20
2022-08-03T01:38:15.814Z,54.10
2022-08-03T01:40:44.544Z,54.20
2022-08-03T01:43:15.245Z,54.20
2022-08-03T01:46:03.576Z,54.20
2022-08-03T01:48:30.834Z,54.30
2022-08-03T01:50:57.954Z,54.30
2022-08-03T01:53:25.045Z,54.40
2022-08-03T01:55:54.469Z,54.40
2022-08-03T01:58:22.203Z,54.50
2022-08-03T02:00:50.445Z,54.50
2022-08-03T02:03:17.549Z,54.50
2022-08-03T02:05:45.819Z,54.60
2022-08-03T02:08:14.181Z,54.60
2022-08-03T02:10:42.240Z,54.50
2022-08-03T02:13:09.905Z,54.50
2022-08-03T02:15:38.063Z,54.50
2022-08-03T02:18:06.483Z,54.50
2022-08-03T02:20:36.276Z,54.60
2022-08-03T02:23:03.249Z,54.60
2022-08-03T02:25:30.617Z,54.60
2022-08-03T02:28:07.213Z,54.60
2022-08-03T02:30:38.696Z,54.80
2022-08-03T02:33:14.419Z,54.70
2022-08-03T02:35:42.233Z,54.70
2022-08-03T02:38:10.565Z,54.70
2022-08-03T02:40:38.822Z,54.70
2022-08-03T02:43:08.766Z,54.60
2022-08-03T02:45:45.551Z,54.60
2022-08-03T02:48:19.492Z,54.60
2022-08-03T02:50:47.040Z,54.50
2022-08-03T02:53:14.313Z,54.50
2022-08-03T02:55:45.641Z,54.40
2022-08-03T02:58:14.004Z,54.40
2022-08-03T03:00:41.580Z,54.40
2022-08-03T03:03:10.241Z,54.30
2022-08-03T03:05:55.047Z,54.30
2022-08-03T03:08:26.843Z,54.30
2022-08-03T03:10:58.736Z,54.30
2022-08-03T03:13:25.662Z,54.40
2022-08-03T03:15:53.007Z,54.30
2022-08-03T03:18:22.712Z,54.40
2022-08-03T03:20:54.379Z,54.40
2022-08-03T03:23:25.382Z,54.30
2022-08-03T03:25:52.696Z,54.30
2022-08-03T03:28:19.590Z,54.30
2022-08-03T03:30:52.624Z,54.20
2022-08-03T03:33:20.716Z,54.30
2022-08-03T03:35:47.730Z,54.30
2022-08-03T03:38:14.461Z,54.30
2022-08-03T03:40:41.530Z,54.30
2022-08-03T03:43:09.007Z,54.40
2022-08-03T03:45:36.027Z,55.00
2022-08-03T03:48:05.115Z,54.40
2022-08-03T03:50:33.275Z,54.40
2022-08-03T03:53:00.030Z,54.40
2022-08-03T03:55:26.757Z,54.40
2022-08-03T03:57:53.448Z,54.50
2022-08-03T04:00:20.391Z,54.60
2022-08-03T04:02:47.231Z,54.50
2022-08-03T04:05:33.646Z,54.50
2022-08-03T04:08:31.546Z,54.60
2022-08-03T04:11:14.738Z,54.60
2022-08-03T04:13:47.912Z,54.50
2022-08-03T04:16:17.078Z,54.40
2022-08-03T04:18:48.430Z,54.30
2022-08-03T04:21:16.130Z,54.40
2022-08-03T04:23:46.483Z,54.30
2022-08-03T04:26:15.647Z,54.20
2022-08-03T04:28:45.924Z,54.20
2022-08-03T04:31:13.828Z,54.10
2022-08-03T04:33:41.550Z,54.00
2022-08-03T04:36:10.313Z,53.90
2022-08-03T04:38:40.696Z,54.00
2022-08-03T04:41:08.102Z,53.90
2022-08-03T04:43:35.406Z,53.80
2022-08-03T04:46:03.211Z,53.80
2022-08-03T04:48:30.017Z,53.70
2022-08-03T04:50:56.778Z,53.70
2022-08-03T04:53:23.500Z,53.50
2022-08-03T04:55:50.265Z,53.50
2022-08-03T04:58:16.945Z,53.50
2022-08-03T05:00:45.540Z,53.40
2022-08-03T05:03:23.653Z,53.30
2022-08-03T05:05:52.337Z,53.20
2022-08-03T05:08:20.312Z,53.20
2022-08-03T05:10:47.844Z,53.10
2022-08-03T05:13:14.775Z,53.00
2022-08-03T05:15:43.054Z,52.90
2022-08-03T05:18:13.976Z,52.90
2022-08-03T05:20:41.325Z,52.80
2022-08-03T05:23:08.163Z,52.80
2022-08-03T05:25:34.944Z,52.80
2022-08-03T05:28:01.634Z,52.70
2022-08-03T05:30:33.366Z,52.70
2022-08-03T05:33:02.092Z,52.60
2022-08-03T05:35:57.444Z,52.70
2022-08-03T05:38:24.003Z,52.70
2022-08-03T05:40:56.808Z,52.50
2022-08-03T05:43:24.808Z,52.50
2022-08-03T05:46:01.501Z,52.50
2022-08-03T05:48:38.577Z,52.50
2022-08-03T05:51:07.563Z,52.50
2022-08-03T05:53:34.775Z,52.40
2022-08-03T05:56:13.195Z,52.40
2022-08-03T05:58:48.391Z,52.40
2022-08-03T06:01:16.106Z,52.40
2022-08-03T06:03:42.937Z,52.40
2022-08-03T06:06:09.802Z,52.40
2022-08-03T06:08:36.623Z,52.40
2022-08-03T06:11:03.907Z,52.50
2022-08-03T06:13:30.667Z,52.50
2022-08-03T06:15:57.407Z,52.60
2022-08-03T06:18:24.633Z,52.70
2022-08-03T06:20:52.406Z,52.80
2022-08-03T06:23:19.410Z,52.80
2022-08-03T06:25:47.168Z,52.90
2022-08-03T06:28:42.530Z,52.80
2022-08-03T06:31:01.415Z,52.90
2022-08-03T06:34:30.932Z,53.00
2022-08-03T06:36:15.428Z,53.00
2022-08-03T06:38:42.182Z,52.90
2022-08-03T06:41:08.923Z,52.80
2022-08-03T06:43:37.392Z,52.90
2022-08-03T06:46:05.432Z,53.00
2022-08-03T06:48:32.319Z,52.90
2022-08-03T06:50:59.255Z,52.70
2022-08-03T06:53:26.180Z,52.70
2022-08-03T06:55:54.901Z,52.70
2022-08-03T06:58:22.536Z,52.70
2022-08-03T07:00:49.313Z,52.70
2022-08-03T07:03:16.597Z,52.60
2022-08-03T07:05:43.891Z,52.60
2022-08-03T07:08:10.723Z,52.50
2022-08-03T07:10:37.892Z,52.50
2022-08-03T07:13:05.339Z,52.40
2022-08-03T07:15:53.874Z,52.40
2022-08-03T07:18:28.305Z,52.30
2022-08-03T07:20:57.272Z,52.20
2022-08-03T07:23:23.994Z,52.20
2022-08-03T07:25:50.888Z,52.10
2022-08-03T07:28:17.896Z,52.00
2022-08-03T07:30:44.633Z,51.90
2022-08-03T07:33:11.502Z,51.80
2022-08-03T07:35:38.400Z,52.30
2022-08-03T07:38:05.163Z,51.50
2022-08-03T07:40:32.206Z,51.50
2022-08-03T07:42:59.831Z,51.30
2022-08-03T07:45:26.863Z,51.10
2022-08-03T07:47:54.343Z,51.10
2022-08-03T07:50:21.975Z,50.80
2022-08-03T07:52:49.775Z,50.70
2022-08-03T07:55:21.077Z,50.50
2022-08-03T07:57:59.320Z,50.40
2022-08-03T08:00:26.069Z,50.20
2022-08-03T08:02:52.776Z,49.80
2022-08-03T08:05:19.555Z,49.80
2022-08-03T08:07:51.712Z,49.30
2022-08-03T08:10:19.449Z,49.10
2022-08-03T08:12:46.460Z,49.20
2022-08-03T08:15:13.525Z,49.00
2022-08-03T08:17:48.699Z,48.60
2022-08-03T08:20:28.348Z,48.40
2022-08-03T08:23:01.640Z,48.40
2022-08-03T08:25:30.356Z,47.90
2022-08-03T08:28:30.710Z,48.20
2022-08-03T08:30:44.190Z,48.10
2022-08-03T08:33:22.599Z,47.70
2022-08-03T08:35:49.768Z,47.40
2022-08-03T08:38:16.491Z,47.80
2022-08-03T08:40:43.240Z,47.30
2022-08-03T08:43:09.984Z,46.50
2022-08-03T08:45:37.293Z,46.70
2022-08-03T08:48:08.205Z,46.60
2022-08-03T08:50:37.680Z,46.80
2022-08-03T08:53:09.646Z,46.30
2022-08-03T08:55:58.641Z,46.20
2022-08-03T08:58:24.801Z,45.80
2022-08-03T09:00:51.819Z,46.30
2022-08-03T09:03:29.253Z,46.10
2022-08-03T09:05:59.533Z,46.90
2022-08-03T09:08:26.309Z,45.70
2022-08-03T09:10:53.056Z,46.00
2022-08-03T09:13:19.920Z,45.40
2022-08-03T09:16:00.615Z,45.30
2022-08-03T09:18:32.743Z,44.00
2022-08-03T09:21:31.077Z,44.80
2022-08-03T09:24:04.287Z,44.50
2022-08-03T09:26:32.775Z,44.80
2022-08-03T09:29:09.665Z,44.70
2022-08-03T09:31:46.017Z,44.00
2022-08-03T09:34:15.276Z,44.50
2022-08-03T09:36:50.461Z,44.50
2022-08-03T09:39:37.551Z,44.30
2022-08-03T09:42:15.070Z,44.50
2022-08-03T09:44:43.116Z,42.80
2022-08-03T09:47:11.522Z,43.10
2022-08-03T09:49:41.047Z,43.10
2022-08-03T09:52:39.502Z,43.30
2022-08-03T09:56:05.147Z,42.70
2022-08-03T09:58:09.414Z,42.20
2022-08-03T10:00:54.826Z,42.00
2022-08-03T10:03:22.336Z,42.70
2022-08-03T10:05:49.068Z,42.80
2022-08-03T10:08:17.570Z,42.10
2022-08-03T10:10:46.229Z,42.50
2022-08-03T10:13:17.794Z,42.60
2022-08-03T10:16:23.290Z,41.60
2022-08-03T10:18:32.821Z,42.00
2022-08-03T10:21:04.258Z,42.10
2022-08-03T10:23:34.585Z,41.40
2022-08-03T10:26:04.225Z,41.20
2022-08-03T10:28:57.315Z,41.40
2022-08-03T10:31:24.175Z,39.70
2022-08-03T10:33:53.314Z,40.80
2022-08-03T10:36:24.481Z,40.90
2022-08-03T10:38:53.176Z,39.80
2022-08-03T10:41:25.981Z,40.00
2022-08-03T10:44:11.317Z,39.60
2022-08-03T10:46:44.303Z,40.40
2022-08-03T10:49:15.960Z,40.30
2022-08-03T10:51:44.685Z,40.20
2022-08-03T10:55:03.564Z,39.90
2022-08-03T10:57:59.106Z,39.50
2022-08-03T11:00:28.126Z,37.50
2022-08-03T11:03:08.812Z,38.30
2022-08-03T11:05:40.793Z,38.80
2022-08-03T11:08:32.516Z,39.40
2022-08-03T11:11:17.660Z,39.00
2022-08-03T11:14:08.079Z,39.30
2022-08-03T11:16:40.898Z,40.00
2022-08-03T11:19:12.309Z,39.60
2022-08-03T11:21:49.478Z,39.00
2022-08-03T11:24:39.284Z,40.00
2022-08-03T11:27:15.796Z,39.70
2022-08-03T11:30:06.211Z,40.50
2022-08-03T11:32:48.297Z,40.00
2022-08-03T11:35:21.572Z,39.30
2022-08-03T11:38:02.991Z,39.20
2022-08-03T11:40:49.990Z,39.70
2022-08-03T11:43:22.830Z,39.70
2022-08-03T11:46:07.583Z,39.70
2022-08-03T11:48:35.142Z,40.50
2022-08-03T11:51:02.460Z,40.90
2022-08-03T11:53:29.444Z,41.60
2022-08-03T11:55:59.676Z,42.30
2022-08-03T11:58:58.106Z,42.40
2022-08-03T12:01:21.269Z,42.30
2022-08-03T12:03:50.493Z,41.50
2022-08-03T12:06:18.595Z,42.00
2022-08-03T12:08:46.185Z,41.20
2022-08-03T12:11:14.999Z,41.30
2022-08-03T12:14:10.734Z,40.30
2022-08-03T12:16:32.083Z,40.00
2022-08-03T12:19:04.940Z,40.50
2022-08-03T12:21:32.062Z,40.40
2022-08-03T12:24:00.788Z,39.30
2022-08-03T12:26:29.007Z,39.90
2022-08-03T12:28:56.202Z,40.10
2022-08-03T12:31:23.038Z,40.00
2022-08-03T12:34:04.316Z,39.50
2022-08-03T12:36:33.843Z,38.60
2022-08-03T12:39:06.651Z,38.20
2022-08-03T12:41:35.289Z,38.00
2022-08-03T12:44:07.403Z,38.30
2022-08-03T12:46:43.934Z,38.80
2022-08-03T12:49:15.725Z,38.60
2022-08-03T12:51:42.676Z,38.00
2022-08-03T12:54:10.645Z,37.20
2022-08-03T12:57:03.960Z,37.60
2022-08-03T12:59:40.653Z,37.90
2022-08-03T13:02:19.090Z,37.50
2022-08-03T13:04:47.244Z,37.10
2022-08-03T13:07:15.311Z,37.70
2022-08-03T13:10:04.898Z,37.70
2022-08-03T13:12:33.043Z,37.50
2022-08-03T13:15:00.306Z,38.10
2022-08-03T13:17:28.026Z,38.50
2022-08-03T13:19:54.860Z,37.90
2022-08-03T13:22:22.776Z,37.40
2022-08-03T13:24:52.718Z,37.60
2022-08-03T13:28:01.559Z,37.10
2022-08-03T13:30:08.535Z,37.60
2022-08-03T13:32:35.675Z,37.00
2022-08-03T13:35:02.839Z,37.50
2022-08-03T13:37:32.135Z,37.40
2022-08-03T13:40:02.999Z,37.50
2022-08-03T13:42:35.130Z,37.40
2022-08-03T13:45:03.044Z,38.30
2022-08-03T13:47:30.172Z,38.80
2022-08-03T13:50:01.914Z,38.90
2022-08-03T13:52:31.489Z,38.90
2022-08-03T13:54:58.818Z,38.80
2022-08-03T13:58:04.793Z,38.40
2022-08-03T14:00:12.795Z,37.30
2022-08-03T14:02:44.434Z,37.20
2022-08-03T14:05:11.298Z,37.30
2022-08-03T14:07:38.028Z,37.00
2022-08-03T14:10:05.218Z,36.80
2022-08-03T14:12:31.978Z,36.90
2022-08-03T14:15:01.574Z,37.40
2022-08-03T14:17:28.630Z,37.60
2022-08-03T14:20:36.947Z,37.40
2022-08-03T14:23:02.722Z,37.20
2022-08-03T14:25:30.904Z,36.70
2022-08-03T14:28:10.288Z,36.40
2022-08-03T14:30:37.120Z,36.80
2022-08-03T14:33:03.912Z,37.00
2022-08-03T14:35:30.638Z,36.80
2022-08-03T14:37:57.352Z,36.90
2022-08-03T14:40:24.377Z,37.00
2022-08-03T14:42:51.133Z,36.90
2022-08-03T14:45:20.026Z,36.80
2022-08-03T14:50:28.672Z,36.80
2022-08-03T14:50:42.869Z,36.70
2022-08-03T14:53:12.507Z,36.70
2022-08-03T14:55:50.929Z,36.40
2022-08-03T14:58:26.618Z,36.20
2022-08-03T15:00:54.775Z,36.20
2022-08-03T15:03:25.451Z,36.80
2022-08-03T15:05:53.520Z,37.20
2022-08-03T15:08:20.769Z,37.30
2022-08-03T15:10:49.160Z,37.50
2022-08-03T15:13:16.635Z,37.40
2022-08-03T15:15:43.550Z,37.50
2022-08-03T15:18:10.484Z,37.20
2022-08-03T15:20:44.417Z,37.10
2022-08-03T15:23:13.070Z,36.90
2022-08-03T15:26:30.239Z,37.30
2022-08-03T15:28:26.926Z,37.10
2022-08-03T15:30:53.799Z,37.20
2022-08-03T15:33:20.695Z,36.80
2022-08-03T15:35:47.732Z,36.90
2022-08-03T15:38:14.744Z,36.70
2022-08-03T15:40:41.990Z,37.20
2022-08-03T15:43:08.970Z,37.00
2022-08-03T15:45:36.562Z,36.60
2022-08-03T15:48:05.095Z,36.80
2022-08-03T15:50:31.927Z,36.70
2022-08-03T15:52:58.668Z,36.70
2022-08-03T15:55:25.508Z,36.90
2022-08-03T15:59:04.339Z,37.00
2022-08-03T16:00:39.829Z,36.70
2022-08-03T16:03:06.571Z,36.60
2022-08-03T16:05:33.363Z,36.80
2022-08-03T16:08:03.987Z,36.60
2022-08-03T16:10:31.777Z,36.50
2022-08-03T16:12:58.975Z,36.50
2022-08-03T16:15:25.768Z,36.40
2022-08-03T16:17:52.974Z,36.70
2022-08-03T16:20:30.862Z,36.50
2022-08-03T16:23:05.517Z,36.20
2022-08-03T16:25:41.854Z,36.40
2022-08-03T16:28:13.830Z,36.50
2022-08-03T16:30:42.990Z,36.80
2022-08-03T16:33:10.999Z,36.80
2022-08-03T16:35:38.250Z,36.40
2022-08-03T16:38:09.721Z,36.50
2022-08-03T16:40:38.019Z,36.70
2022-08-03T16:43:18.901Z,36.80
2022-08-03T16:45:49.290Z,36.60
2022-08-03T16:48:16.450Z,36.60
2022-08-03T16:50:44.183Z,36.80
2022-08-03T16:53:15.630Z,36.40
2022-08-03T16:55:52.421Z,36.50
2022-08-03T16:58:34.368Z,36.70
2022-08-03T17:01:24.284Z,37.00
2022-08-03T17:04:03.453Z,37.00
2022-08-03T17:06:36.632Z,37.00
2022-08-03T17:09:09.930Z,37.10
2022-08-03T17:11:47.844Z,37.00
2022-08-03T17:14:16.827Z,36.80
2022-08-03T17:16:52.152Z,37.20
2022-08-03T17:19:21.941Z,37.10
2022-08-03T17:22:03.974Z,37.10
2022-08-03T17:24:45.369Z,37.20
2022-08-03T17:28:50.947Z,37.40
2022-08-03T17:30:19.101Z,37.40
2022-08-03T17:32:56.686Z,37.30
2022-08-03T17:35:36.913Z,37.30
2022-08-03T17:38:08.959Z,37.50
2022-08-03T17:40:39.457Z,37.60
2022-08-03T17:44:13.884Z,37.60
2022-08-03T17:46:10.688Z,37.60
2022-08-03T17:48:52.632Z,37.70
2022-08-03T17:51:26.854Z,37.70
2022-08-03T17:54:01.143Z,37.80
2022-08-03T17:56:45.103Z,37.90
2022-08-03T17:59:15.759Z,38.00
2022-08-03T18:02:16.637Z,38.00
2022-08-03T18:05:01.090Z,38.00
2022-08-03T18:07:40.901Z,38.20
2022-08-03T18:10:11.530Z,38.40
2022-08-03T18:12:51.739Z,38.50
2022-08-03T18:15:25.246Z,38.60
2022-08-03T18:17:55.236Z,38.60
2022-08-03T18:20:32.160Z,38.70
2022-08-03T18:23:04.820Z,38.70
2022-08-03T18:25:45.412Z,38.80
2022-08-03T18:28:18.797Z,38.90
2022-08-03T18:30:53.216Z,38.90
2022-08-03T18:34:17.627Z,39.10
2022-08-03T18:36:10.957Z,39.10
2022-08-03T18:38:46.448Z,39.20
2022-08-03T18:41:20.688Z,39.20
2022-08-03T18:44:06.938Z,39.30
2022-08-03T18:46:35.826Z,39.40
2022-08-03T18:49:29.184Z,39.40
2022-08-03T18:52:27.777Z,39.60
2022-08-03T18:55:35.658Z,39.60
2022-08-03T18:58:23.598Z,39.70
2022-08-03T19:01:04.838Z,39.90
2022-08-03T19:03:47.924Z,39.90
2022-08-03T19:06:27.646Z,39.90
2022-08-03T19:09:04.879Z,40.10
2022-08-03T19:12:12.693Z,40.20
2022-08-03T19:14:29.939Z,40.10
2022-08-03T19:17:10.533Z,40.30
2022-08-03T19:19:44.105Z,40.40
2022-08-03T19:22:16.199Z,40.50
2022-08-03T19:24:45.691Z,40.80
2022-08-03T19:27:12.850Z,41.00
2022-08-03T19:29:58.945Z,41.00
2022-08-03T19:32:31.712Z,41.30
2022-08-03T19:35:00.905Z,41.40
2022-08-03T19:37:33.295Z,41.60
2022-08-03T19:40:10.930Z,41.70
2022-08-03T19:42:42.349Z,41.80
2022-08-03T19:45:14.025Z,42.00
2022-08-03T19:48:09.968Z,42.10
2022-08-03T19:50:44.739Z,42.40
2022-08-03T19:53:12.877Z,42.20
2022-08-03T19:55:49.044Z,42.40
2022-08-03T19:58:24.348Z,42.50
2022-08-03T20:00:55.954Z,42.50
2022-08-03T20:03:23.432Z,42.60
2022-08-03T20:05:54.151Z,42.60
2022-08-03T20:08:22.374Z,42.70
2022-08-03T20:10:51.346Z,42.80
2022-08-03T20:13:19.621Z,42.80
2022-08-03T20:15:46.905Z,43.40
2022-08-03T20:18:16.531Z,42.80
2022-08-03T20:20:45.999Z,42.90
2022-08-03T20:23:18.310Z,42.90
2022-08-03T20:25:57.586Z,43.00
2022-08-03T20:28:30.773Z,43.10
2022-08-03T20:30:58.327Z,43.00
2022-08-03T20:33:27.669Z,43.00
2022-08-03T20:36:03.661Z,42.90
2022-08-03T20:38:30.629Z,42.90
2022-08-03T20:40:59.260Z,42.90
2022-08-03T20:43:26.204Z,43.00
2022-08-03T20:46:00.914Z,42.90
2022-08-03T20:48:42.981Z,42.90
2022-08-03T20:51:19.345Z,42.90
2022-08-03T20:56:35.973Z,43.00
2022-08-03T20:59:05.210Z,42.90
2022-08-03T21:01:35.976Z,43.00
2022-08-03T21:04:09.433Z,43.00
2022-08-03T21:06:53.077Z,43.00
2022-08-03T21:09:33.203Z,43.10
2022-08-03T21:12:08.011Z,43.10
2022-08-03T21:13:13.426Z,42.90
2022-08-03T21:15:02.208Z,43.00
2022-08-03T21:17:40.599Z,43.10
2022-08-03T21:20:09.959Z,43.10
2022-08-03T21:22:38.389Z,43.10
2022-08-03T21:25:08.565Z,43.10
2022-08-03T21:27:36.684Z,43.10
2022-08-03T21:30:07.370Z,43.10
2022-08-03T21:32:34.287Z,43.20
2022-08-03T21:35:01.456Z,43.10
2022-08-03T21:37:28.807Z,43.10
2022-08-03T21:39:56.586Z,43.10
2022-08-03T21:42:26.874Z,43.20
2022-08-03T21:44:54.022Z,43.20
2022-08-03T21:47:22.495Z,43.20
2022-08-03T21:50:08.742Z,43.20
2022-08-03T21:52:44.256Z,43.20
2022-08-03T21:55:18.650Z,43.20
2022-08-03T21:57:52.076Z,43.10
2022-08-03T22:00:20.814Z,43.70
2022-08-03T22:02:54.742Z,43.10
2022-08-03T22:05:28.831Z,43.10
2022-08-03T22:08:09.903Z,43.70
2022-08-03T22:10:37.294Z,43.00
2022-08-03T22:13:04.139Z,43.10
2022-08-03T22:15:31.122Z,43.10
2022-08-03T22:17:59.332Z,43.10
2022-08-03T22:20:26.373Z,43.10
2022-08-03T22:22:56.440Z,43.00
2022-08-03T22:25:29.722Z,43.00
2022-08-03T22:27:59.002Z,43.10
2022-08-03T22:30:25.880Z,43.00
2022-08-03T22:32:54.903Z,43.00
2022-08-03T22:35:21.931Z,43.00
2022-08-03T22:37:49.691Z,43.00
2022-08-03T22:40:16.964Z,43.10
2022-08-03T22:42:45.882Z,43.10
2022-08-03T22:46:07.581Z,43.10
2022-08-03T22:48:00.751Z,43.10
2022-08-03T22:50:32.478Z,43.10
2022-08-03T22:53:00.469Z,43.20
2022-08-03T22:55:28.188Z,43.10
2022-08-03T22:57:56.069Z,43.20
2022-08-03T23:00:23.408Z,43.20
2022-08-03T23:02:51.820Z,43.10
2022-08-03T23:06:00.610Z,43.20
2022-08-03T23:08:20.345Z,43.30
2022-08-03T23:10:47.745Z,43.30
2022-08-03T23:13:16.821Z,43.20
2022-08-03T23:15:52.087Z,43.30
2022-08-03T23:18:19.963Z,43.30
2022-08-03T23:20:50.265Z,43.30
2022-08-03T23:23:20.007Z,43.30
2022-08-03T23:25:47.966Z,43.40
2022-08-03T23:28:18.175Z,43.40
2022-08-03T23:30:45.874Z,43.40
2022-08-03T23:33:15.050Z,43.40
2022-08-03T23:36:28.468Z,43.30
2022-08-03T23:38:45.052Z,43.30
2022-08-03T23:41:12.646Z,43.30
2022-08-03T23:43:50.737Z,43.40
2022-08-03T23:46:19.930Z,43.30
2022-08-03T23:48:46.954Z,43.30
2022-08-03T23:51:19.983Z,43.30
2022-08-03T23:54:14.109Z,43.40
2022-08-03T23:57:03.915Z,43.40
2022-08-03T23:59:36.565Z,43.40
